Time,TemperatureF,DewpointF,PressureIn,WindDirection,WindDirectionDegrees,WindSpeedMPH,WindSpeedGustMPH,Humidity,HourlyPrecipIn,Conditions,Clouds,dailyrainin,SolarRadiationWatts/m^2,SoftwareType,DateUTC
2013-03-19 00:02:00,64.0,11.0,29.99,WNW,286,8.0,13.0,11,-99.99,,,-99.99,0.000000,,2013-03-19 06:02:00,
2013-03-19 00:12:00,64.0,11.0,29.99,WNW,297,8.0,14.0,12,-99.99,,,-99.99,0.000000,,2013-03-19 06:12:00,
2013-03-19 00:22:00,64.0,11.0,29.99,WNW,297,8.0,14.0,12,-99.99,,,-99.99,0.000000,,2013-03-19 06:22:00,
2013-03-19 00:32:00,62.0,9.0,29.99,WNW,299,9.0,12.0,12,-99.99,,,-99.99,0.000000,,2013-03-19 06:32:00,
2013-03-19 00:42:00,62.0,9.0,29.99,WNW,299,9.0,12.0,12,-99.99,,,-99.99,0.000000,,2013-03-19 06:42:00,
2013-03-19 00:52:00,62.0,9.0,29.99,WNW,299,9.0,12.0,12,-99.99,,,-99.99,0.000000,,2013-03-19 06:52:00,
2013-03-19 01:02:00,61.0,10.0,29.98,West,281,9.0,13.0,13,-99.99,,,-99.99,0.000000,,2013-03-19 07:02:00,
2013-03-19 01:12:00,62.0,11.0,29.99,West,277,7.0,11.0,13,-99.99,,,-99.99,0.000000,,2013-03-19 07:12:00,
2013-03-19 01:21:00,62.0,11.0,29.99,West,277,7.0,11.0,13,-99.99,,,-99.99,0.000000,,2013-03-19 07:21:00,
2013-03-19 01:32:00,61.0,10.0,29.99,WNW,285,7.0,11.0,13,-99.99,,,-99.99,0.000000,,2013-03-19 07:32:00,
2013-03-19 01:42:00,59.0,10.0,29.99,WNW,291,8.0,12.0,13,-99.99,,,-99.99,0.000000,,2013-03-19 07:42:00,
2013-03-19 01:52:00,59.0,10.0,29.99,WNW,291,8.0,12.0,13,-99.99,,,-99.99,0.000000,,2013-03-19 07:52:00,
2013-03-19 02:02:00,59.0,10.0,29.99,WNW,303,6.0,9.0,14,-99.99,,,-99.99,0.000000,,2013-03-19 08:02:00,
2013-03-19 02:12:00,58.0,12.0,29.99,NW,306,5.0,8.0,15,-99.99,,,-99.99,0.000000,,2013-03-19 08:12:00,
2013-03-19 02:22:00,58.0,12.0,29.99,NW,306,5.0,8.0,15,-99.99,,,-99.99,0.000000,,2013-03-19 08:22:00,
2013-03-19 02:32:00,58.0,12.0,29.99,NW,306,5.0,8.0,15,-99.99,,,-99.99,0.000000,,2013-03-19 08:32:00,
2013-03-19 02:42:00,60.0,10.0,29.99,NW,320,8.0,13.0,13,-99.99,,,-99.99,0.000000,,2013-03-19 08:42:00,
2013-03-19 02:52:00,60.0,10.0,29.99,NW,320,8.0,13.0,13,-99.99,,,-99.99,0.000000,,2013-03-19 08:52:00,
2013-03-19 03:02:00,60.0,10.0,29.98,NW,308,10.0,14.0,13,-99.99,,,-99.99,0.000000,,2013-03-19 09:02:00,
2013-03-19 03:12:00,60.0,10.0,29.98,NW,308,10.0,14.0,13,-99.99,,,-99.99,0.000000,,2013-03-19 09:12:00,
2013-03-19 03:22:00,60.0,10.0,29.98,NW,308,10.0,14.0,13,-99.99,,,-99.99,0.000000,,2013-03-19 09:22:00,
2013-03-19 03:32:00,62.0,11.0,29.98,WNW,294,12.0,17.0,13,-99.99,,,-99.99,0.000000,,2013-03-19 09:32:00,
2013-03-19 03:43:00,63.0,11.0,29.97,WNW,282,12.0,19.0,12,-99.99,,,-99.99,0.000000,,2013-03-19 09:43:00,
2013-03-19 03:53:00,63.0,11.0,29.97,WNW,282,12.0,19.0,12,-99.99,,,-99.99,0.000000,,2013-03-19 09:53:00,
2013-03-19 04:03:00,63.0,12.0,29.96,West,277,13.0,19.0,12,-99.99,,,-99.99,0.000000,,2013-03-19 10:03:00,
2013-03-19 04:12:00,63.0,12.0,29.96,West,275,12.0,19.0,13,-99.99,,,-99.99,0.000000,,2013-03-19 10:12:00,
2013-03-19 04:23:00,63.0,12.0,29.96,West,275,12.0,19.0,13,-99.99,,,-99.99,0.000000,,2013-03-19 10:23:00,
2013-03-19 04:32:00,63.0,12.0,29.96,West,275,12.0,19.0,13,-99.99,,,-99.99,0.000000,,2013-03-19 10:32:00,
2013-03-19 04:42:00,63.0,12.0,29.96,West,275,12.0,19.0,13,-99.99,,,-99.99,0.000000,,2013-03-19 10:42:00,
2013-03-19 07:12:00,60.0,13.0,29.98,NNW,336,4.0,18.0,15,-99.99,,,-99.99,0.000000,,2013-03-19 13:12:00,
2013-03-19 07:22:00,60.0,13.0,29.98,NNW,336,4.0,18.0,15,-99.99,,,-99.99,0.000000,,2013-03-19 13:22:00,
2013-03-19 07:32:00,60.0,12.0,29.99,NNE,28,3.0,4.0,15,-99.99,,,-99.99,0.000000,,2013-03-19 13:32:00,
2013-03-19 07:42:00,59.0,12.0,29.99,NE,45,3.0,6.0,15,-99.99,,,-99.99,2.790000,,2013-03-19 13:42:00,
2013-03-19 07:53:00,59.0,12.0,29.99,NE,45,3.0,6.0,15,-99.99,,,-99.99,2.790000,,2013-03-19 13:53:00,
2013-03-19 08:02:00,59.0,12.0,29.99,NE,45,3.0,6.0,15,-99.99,,,-99.99,2.790000,,2013-03-19 14:02:00,
2013-03-19 08:12:00,58.0,14.0,30.00,North,1,3.0,7.0,17,-99.99,,,-99.99,58.580002,,2013-03-19 14:12:00,
2013-03-19 08:22:00,58.0,14.0,30.00,North,1,3.0,7.0,17,-99.99,,,-99.99,58.580002,,2013-03-19 14:22:00,
2013-03-19 08:32:00,58.0,16.0,30.00,NW,313,3.0,5.0,18,-99.99,,,-99.99,71.129997,,2013-03-19 14:32:00,
2013-03-19 08:42:00,60.0,14.0,30.00,NNW,337,4.0,7.0,16,-99.99,,,-99.99,139.470001,,2013-03-19 14:42:00,
2013-03-19 08:52:00,60.0,14.0,30.00,NNW,337,4.0,7.0,16,-99.99,,,-99.99,139.470001,,2013-03-19 14:52:00,
2013-03-19 09:02:00,61.0,15.0,30.00,NNW,344,4.0,6.0,16,-99.99,,,-99.99,116.449997,,2013-03-19 15:02:00,
2013-03-19 09:12:00,62.0,15.0,30.01,NNE,24,3.0,6.0,15,-99.99,,,-99.99,165.970001,,2013-03-19 15:12:00,
2013-03-19 09:22:00,62.0,15.0,30.01,NNE,24,3.0,6.0,15,-99.99,,,-99.99,165.970001,,2013-03-19 15:22:00,
2013-03-19 09:33:00,62.0,17.0,30.02,SSE,152,2.0,6.0,16,-99.99,,,-99.99,184.789993,,2013-03-19 15:33:00,
2013-03-19 09:43:00,63.0,14.0,30.02,SE,124,3.0,4.0,14,-99.99,,,-99.99,147.830002,,2013-03-19 15:43:00,
2013-03-19 09:53:00,63.0,14.0,30.02,SE,124,3.0,4.0,14,-99.99,,,-99.99,147.830002,,2013-03-19 15:53:00,
2013-03-19 10:04:00,64.0,14.0,30.02,NNE,25,3.0,7.0,14,-99.99,,,-99.99,206.410004,,2013-03-19 16:04:00,
2013-03-19 10:13:00,66.0,15.0,30.02,NW,317,7.0,19.0,13,-99.99,,,-99.99,408.640015,,2013-03-19 16:13:00,
2013-03-19 10:24:00,66.0,15.0,30.02,NW,317,7.0,19.0,13,-99.99,,,-99.99,408.640015,,2013-03-19 16:24:00,
2013-03-19 10:34:00,67.0,16.0,30.02,WNW,286,8.0,17.0,13,-99.99,,,-99.99,312.410004,,2013-03-19 16:34:00,
2013-03-19 10:44:00,68.0,16.0,30.02,West,275,6.0,12.0,13,-99.99,,,-99.99,315.190002,,2013-03-19 16:44:00,
2013-03-19 10:54:00,68.0,16.0,30.02,West,275,6.0,12.0,13,-99.99,,,-99.99,315.190002,,2013-03-19 16:54:00,
2013-03-19 11:03:00,68.0,16.0,30.02,West,275,6.0,12.0,13,-99.99,,,-99.99,315.190002,,2013-03-19 17:03:00,
2013-03-19 11:13:00,68.0,16.0,30.02,West,275,6.0,12.0,13,-99.99,,,-99.99,315.190002,,2013-03-19 17:13:00,
2013-03-19 12:43:00,70.0,17.0,30.02,WNW,288,16.0,25.0,13,-99.99,,,-99.99,930.940002,,2013-03-19 18:43:00,
2013-03-19 12:53:00,70.0,17.0,30.02,WNW,288,16.0,25.0,13,-99.99,,,-99.99,930.940002,,2013-03-19 18:53:00,
2013-03-19 13:02:00,71.0,17.0,30.01,WNW,294,15.0,27.0,12,-99.99,,,-99.99,837.500000,,2013-03-19 19:02:00,
2013-03-19 13:12:00,71.0,17.0,30.01,West,278,14.0,25.0,12,-99.99,,,-99.99,914.200012,,2013-03-19 19:12:00,
2013-03-19 13:22:00,71.0,17.0,30.01,West,278,14.0,25.0,12,-99.99,,,-99.99,914.200012,,2013-03-19 19:22:00,
2013-03-19 13:33:00,72.0,18.0,30.00,WNW,291,17.0,28.0,12,-99.99,,,-99.99,905.840027,,2013-03-19 19:33:00,
2013-03-19 13:42:00,72.0,18.0,30.00,WNW,290,20.0,31.0,12,-99.99,,,-99.99,1029.959961,,2013-03-19 19:42:00,
2013-03-19 13:53:00,72.0,18.0,30.00,WNW,290,20.0,31.0,12,-99.99,,,-99.99,1029.959961,,2013-03-19 19:53:00,
2013-03-19 14:02:00,72.0,18.0,30.00,WNW,290,20.0,31.0,12,-99.99,,,-99.99,1029.959961,,2013-03-19 20:02:00,
2013-03-19 14:12:00,73.0,18.0,29.99,WNW,287,13.0,23.0,12,-99.99,,,-99.99,928.150024,,2013-03-19 20:12:00,
2013-03-19 14:22:00,73.0,18.0,29.99,WNW,287,13.0,23.0,12,-99.99,,,-99.99,928.150024,,2013-03-19 20:22:00,
2013-03-19 14:32:00,72.0,18.0,29.98,West,271,16.0,28.0,12,-99.99,,,-99.99,919.090027,,2013-03-19 20:32:00,
2013-03-19 14:42:00,72.0,17.0,29.97,West,270,15.0,26.0,12,-99.99,,,-99.99,900.260010,,2013-03-19 20:42:00,
2013-03-19 14:53:00,72.0,17.0,29.97,West,270,15.0,26.0,12,-99.99,,,-99.99,900.260010,,2013-03-19 20:53:00,
2013-03-19 15:02:00,73.0,18.0,29.97,West,270,15.0,33.0,12,-99.99,,,-99.99,860.510010,,2013-03-19 21:02:00,
2013-03-19 15:12:00,73.0,18.0,29.96,West,263,12.0,26.0,12,-99.99,,,-99.99,835.409973,,2013-03-19 21:12:00,
2013-03-19 15:22:00,73.0,18.0,29.96,West,263,12.0,26.0,12,-99.99,,,-99.99,835.409973,,2013-03-19 21:22:00,
2013-03-19 15:33:00,73.0,18.0,29.96,West,263,12.0,26.0,12,-99.99,,,-99.99,835.409973,,2013-03-19 21:33:00,
2013-03-19 15:43:00,73.0,18.0,29.95,West,266,13.0,25.0,11,-99.99,,,-99.99,775.429993,,2013-03-19 21:43:00,
2013-03-19 15:53:00,73.0,18.0,29.95,West,266,13.0,25.0,11,-99.99,,,-99.99,775.429993,,2013-03-19 21:53:00,
2013-03-19 16:03:00,74.0,17.0,29.95,West,274,13.0,27.0,11,-99.99,,,-99.99,733.590027,,2013-03-19 22:03:00,
2013-03-19 16:12:00,74.0,17.0,29.94,WNW,289,13.0,27.0,11,-99.99,,,-99.99,693.849976,,2013-03-19 22:12:00,
2013-03-19 16:23:00,74.0,17.0,29.94,WNW,289,13.0,27.0,11,-99.99,,,-99.99,693.849976,,2013-03-19 22:23:00,
2013-03-19 16:33:00,74.0,17.0,29.94,West,268,13.0,26.0,11,-99.99,,,-99.99,666.650024,,2013-03-19 22:33:00,
2013-03-19 16:43:00,74.0,17.0,29.94,West,279,14.0,27.0,11,-99.99,,,-99.99,627.599976,,2013-03-19 22:43:00,
2013-03-19 16:53:00,74.0,17.0,29.94,West,279,14.0,27.0,11,-99.99,,,-99.99,627.599976,,2013-03-19 22:53:00,
2013-03-19 17:02:00,74.0,18.0,29.94,West,271,12.0,23.0,11,-99.99,,,-99.99,537.640015,,2013-03-19 23:02:00,
2013-03-19 17:12:00,75.0,17.0,29.94,WNW,299,10.0,19.0,11,-99.99,,,-99.99,545.309998,,2013-03-19 23:12:00,
2013-03-19 17:22:00,75.0,17.0,29.94,WNW,299,10.0,19.0,11,-99.99,,,-99.99,545.309998,,2013-03-19 23:22:00,
2013-03-19 17:32:00,75.0,17.0,29.94,WNW,297,9.0,19.0,11,-99.99,,,-99.99,483.950012,,2013-03-19 23:32:00,
2013-03-19 17:42:00,75.0,17.0,29.94,WNW,297,9.0,19.0,11,-99.99,,,-99.99,483.950012,,2013-03-19 23:42:00,
2013-03-19 17:52:00,75.0,17.0,29.94,WNW,297,9.0,19.0,11,-99.99,,,-99.99,483.950012,,2013-03-19 23:52:00,
2013-03-19 18:02:00,74.0,17.0,29.94,West,269,12.0,25.0,11,-99.99,,,-99.99,397.480011,,2013-03-20 00:02:00,
2013-03-19 18:13:00,74.0,17.0,29.94,West,276,12.0,21.0,11,-99.99,,,-99.99,310.309998,,2013-03-20 00:13:00,
2013-03-19 18:22:00,74.0,17.0,29.94,West,276,12.0,21.0,11,-99.99,,,-99.99,310.309998,,2013-03-20 00:22:00,
2013-03-19 18:33:00,74.0,17.0,29.95,West,277,9.0,18.0,11,-99.99,,,-99.99,256.619995,,2013-03-20 00:33:00,
2013-03-19 18:42:00,73.0,17.0,29.95,WNW,285,10.0,17.0,11,-99.99,,,-99.99,210.589996,,2013-03-20 00:42:00,
2013-03-19 18:52:00,73.0,17.0,29.95,WNW,285,10.0,17.0,11,-99.99,,,-99.99,210.589996,,2013-03-20 00:52:00,
2013-03-19 19:03:00,73.0,17.0,29.96,WNW,283,9.0,18.0,11,-99.99,,,-99.99,161.779999,,2013-03-20 01:03:00,
2013-03-19 19:12:00,72.0,17.0,29.96,West,273,9.0,18.0,12,-99.99,,,-99.99,99.019997,,2013-03-20 01:12:00,
2013-03-19 19:22:00,72.0,17.0,29.96,West,273,9.0,18.0,12,-99.99,,,-99.99,99.019997,,2013-03-20 01:22:00,
2013-03-19 19:32:00,71.0,17.0,29.97,West,276,4.0,10.0,12,-99.99,,,-99.99,34.869999,,2013-03-20 01:32:00,
2013-03-19 19:42:00,70.0,17.0,29.98,WNW,292,6.0,14.0,13,-99.99,,,-99.99,12.550000,,2013-03-20 01:42:00,
2013-03-19 19:53:00,70.0,17.0,29.98,WNW,292,6.0,14.0,13,-99.99,,,-99.99,12.550000,,2013-03-20 01:53:00,
2013-03-19 20:02:00,70.0,14.0,29.99,NE,50,4.0,7.0,11,-99.99,,,-99.99,1.390000,,2013-03-20 02:02:00,
2013-03-19 20:12:00,69.0,14.0,30.00,NNE,30,4.0,10.0,12,-99.99,,,-99.99,0.000000,,2013-03-20 02:12:00,
2013-03-19 20:22:00,69.0,14.0,30.00,NNE,30,4.0,10.0,12,-99.99,,,-99.99,0.000000,,2013-03-20 02:22:00,
2013-03-19 20:32:00,67.0,17.0,30.01,West,272,2.0,4.0,14,-99.99,,,-99.99,0.000000,,2013-03-20 02:32:00,
2013-03-19 20:42:00,65.0,20.0,30.03,West,268,2.0,3.0,17,-99.99,,,-99.99,0.000000,,2013-03-20 02:42:00,
2013-03-19 20:53:00,65.0,20.0,30.03,West,268,2.0,3.0,17,-99.99,,,-99.99,0.000000,,2013-03-20 02:53:00,
2013-03-19 21:02:00,67.0,15.0,30.04,WNW,299,2.0,4.0,13,-99.99,,,-99.99,0.000000,,2013-03-20 03:02:00,
2013-03-19 21:12:00,68.0,14.0,30.04,NE,40,5.0,9.0,11,-99.99,,,-99.99,0.000000,,2013-03-20 03:12:00,
2013-03-19 21:22:00,68.0,14.0,30.04,NE,40,5.0,9.0,11,-99.99,,,-99.99,0.000000,,2013-03-20 03:22:00,
2013-03-19 21:33:00,69.0,14.0,30.05,ENE,73,6.0,14.0,12,-99.99,,,-99.99,0.000000,,2013-03-20 03:33:00,
2013-03-19 21:42:00,67.0,16.0,30.07,ENE,58,9.0,16.0,13,-99.99,,,-99.99,0.000000,,2013-03-20 03:42:00,
2013-03-19 21:53:00,67.0,16.0,30.07,ENE,58,9.0,16.0,13,-99.99,,,-99.99,0.000000,,2013-03-20 03:53:00,
2013-03-19 22:03:00,66.0,17.0,30.07,NE,46,9.0,16.0,14,-99.99,,,-99.99,0.000000,,2013-03-20 04:03:00,
2013-03-19 22:12:00,65.0,20.0,30.08,North,5,6.0,11.0,17,-99.99,,,-99.99,0.000000,,2013-03-20 04:12:00,
2013-03-19 22:23:00,65.0,20.0,30.08,North,5,6.0,11.0,17,-99.99,,,-99.99,0.000000,,2013-03-20 04:23:00,
2013-03-19 22:32:00,63.0,20.0,30.09,South,190,9.0,15.0,19,-99.99,,,-99.99,0.000000,,2013-03-20 04:32:00,
2013-03-19 22:43:00,65.0,18.0,30.09,East,81,4.0,13.0,16,-99.99,,,-99.99,0.000000,,2013-03-20 04:43:00,
2013-03-19 22:53:00,65.0,18.0,30.09,East,81,4.0,13.0,16,-99.99,,,-99.99,0.000000,,2013-03-20 04:53:00,
2013-03-19 23:02:00,65.0,19.0,30.10,NNE,30,8.0,17.0,16,-99.99,,,-99.99,0.000000,,2013-03-20 05:02:00,
2013-03-19 23:12:00,64.0,18.0,30.12,East,98,10.0,20.0,17,-99.99,,,-99.99,0.000000,,2013-03-20 05:12:00,
2013-03-19 23:23:00,64.0,18.0,30.12,East,98,10.0,20.0,17,-99.99,,,-99.99,0.000000,,2013-03-20 05:23:00,
2013-03-19 23:32:00,63.0,19.0,30.13,ESE,106,8.0,18.0,18,-99.99,,,-99.99,0.000000,,2013-03-20 05:32:00,
2013-03-19 23:42:00,63.0,19.0,30.13,NNE,31,6.0,11.0,17,-99.99,,,-99.99,0.000000,,2013-03-20 05:42:00,
2013-03-19 23:53:00,63.0,19.0,30.13,NNE,31,6.0,11.0,17,-99.99,,,-99.99,0.000000,,2013-03-20 05:53:00,